sensor_id;sensor_type;location;lat;lon;timestamp;temperature;humidity
8152;DHT22;4117;53.622;9.958;2022-10-01T00:00:22;9.30;26.50
8152;DHT22;4117;53.622;9.958;2022-10-01T00:02:51;9.30;26.50
8152;DHT22;4117;53.622;9.958;2022-10-01T00:05:17;9.30;26.60
8152;DHT22;4117;53.622;9.958;2022-10-01T00:07:45;9.30;27.80
8152;DHT22;4117;53.622;9.958;2022-10-01T00:10:13;9.30;29.40
8152;DHT22;4117;53.622;9.958;2022-10-01T00:12:43;9.30;28.50
8152;DHT22;4117;53.622;9.958;2022-10-01T00:15:14;9.30;28.70
8152;DHT22;4117;53.622;9.958;2022-10-01T00:17:41;9.30;30.00
8152;DHT22;4117;53.622;9.958;2022-10-01T00:20:09;9.30;30.00
8152;DHT22;4117;53.622;9.958;2022-10-01T00:22:36;9.30;27.60
8152;DHT22;4117;53.622;9.958;2022-10-01T00:25:04;9.20;26.60
8152;DHT22;4117;53.622;9.958;2022-10-01T00:27:31;9.30;28.40
8152;DHT22;4117;53.622;9.958;2022-10-01T00:29:59;9.30;30.10
8152;DHT22;4117;53.622;9.958;2022-10-01T00:32:29;9.30;29.00
8152;DHT22;4117;53.622;9.958;2022-10-01T00:34:57;9.20;29.50
8152;DHT22;4117;53.622;9.958;2022-10-01T00:37:24;9.20;28.10
8152;DHT22;4117;53.622;9.958;2022-10-01T00:39:51;9.20;27.80
8152;DHT22;4117;53.622;9.958;2022-10-01T00:42:20;9.20;28.50
8152;DHT22;4117;53.622;9.958;2022-10-01T00:44:47;9.20;30.50
8152;DHT22;4117;53.622;9.958;2022-10-01T00:47:24;9.10;27.70
8152;DHT22;4117;53.622;9.958;2022-10-01T00:49:56;9.10;26.70
8152;DHT22;4117;53.622;9.958;2022-10-01T00:52:27;9.20;26.50
8152;DHT22;4117;53.622;9.958;2022-10-01T00:54:58;9.20;26.50
8152;DHT22;4117;53.622;9.958;2022-10-01T00:57:26;9.20;26.50
8152;DHT22;4117;53.622;9.958;2022-10-01T00:59:55;9.20;26.50
8152;DHT22;4117;53.622;9.958;2022-10-01T01:02:23;9.20;26.50
8152;DHT22;4117;53.622;9.958;2022-10-01T01:04:50;9.20;26.50
8152;DHT22;4117;53.622;9.958;2022-10-01T01:07:18;9.20;26.50
8152;DHT22;4117;53.622;9.958;2022-10-01T01:09:47;9.20;26.50
8152;DHT22;4117;53.622;9.958;2022-10-01T01:12:32;9.20;26.50
8152;DHT22;4117;53.622;9.958;2022-10-01T01:15:10;9.20;26.50
8152;DHT22;4117;53.622;9.958;2022-10-01T01:17:46;9.20;26.50
8152;DHT22;4117;53.622;9.958;2022-10-01T01:20:38;9.20;26.50
8152;DHT22;4117;53.622;9.958;2022-10-01T01:23:23;9.20;26.50
8152;DHT22;4117;53.622;9.958;2022-10-01T01:25:57;9.30;26.50
8152;DHT22;4117;53.622;9.958;2022-10-01T01:28:30;9.30;26.50
8152;DHT22;4117;53.622;9.958;2022-10-01T01:31:01;9.20;26.50
8152;DHT22;4117;53.622;9.958;2022-10-01T01:33:31;9.30;26.60
8152;DHT22;4117;53.622;9.958;2022-10-01T01:36:01;9.30;26.50
8152;DHT22;4117;53.622;9.958;2022-10-01T01:38:33;9.40;26.60
8152;DHT22;4117;53.622;9.958;2022-10-01T01:41:02;9.40;26.60
8152;DHT22;4117;53.622;9.958;2022-10-01T01:43:35;9.50;26.60
8152;DHT22;4117;53.622;9.958;2022-10-01T01:46:05;9.50;26.60
8152;DHT22;4117;53.622;9.958;2022-10-01T01:48:34;9.60;26.30
8152;DHT22;4117;53.622;9.958;2022-10-01T01:51:08;9.50;26.60
8152;DHT22;4117;53.622;9.958;2022-10-01T01:53:36;9.60;26.40
8152;DHT22;4117;53.622;9.958;2022-10-01T01:56:04;9.60;25.80
8152;DHT22;4117;53.622;9.958;2022-10-01T01:58:33;9.60;26.70
8152;DHT22;4117;53.622;9.958;2022-10-01T02:01:01;9.60;26.70
8152;DHT22;4117;53.622;9.958;2022-10-01T02:03:29;9.60;26.60
8152;DHT22;4117;53.622;9.958;2022-10-01T02:06:07;9.60;26.60
8152;DHT22;4117;53.622;9.958;2022-10-01T02:08:38;9.60;26.10
8152;DHT22;4117;53.622;9.958;2022-10-01T02:11:24;9.60;26.60
8152;DHT22;4117;53.622;9.958;2022-10-01T02:14:06;9.60;26.30
8152;DHT22;4117;53.622;9.958;2022-10-01T02:16:45;9.60;24.40
8152;DHT22;4117;53.622;9.958;2022-10-01T02:19:20;9.70;25.70
8152;DHT22;4117;53.622;9.958;2022-10-01T02:21:55;9.70;23.50
8152;DHT22;4117;53.622;9.958;2022-10-01T02:24:30;9.70;22.30
8152;DHT22;4117;53.622;9.958;2022-10-01T02:27:00;9.70;24.30
8152;DHT22;4117;53.622;9.958;2022-10-01T02:29:31;9.70;23.40
8152;DHT22;4117;53.622;9.958;2022-10-01T02:31:59;9.70;22.00
8152;DHT22;4117;53.622;9.958;2022-10-01T02:34:28;9.80;20.50
8152;DHT22;4117;53.622;9.958;2022-10-01T02:36:57;9.80;21.80
8152;DHT22;4117;53.622;9.958;2022-10-01T02:39:27;9.70;21.70
8152;DHT22;4117;53.622;9.958;2022-10-01T02:41:54;9.70;22.30
8152;DHT22;4117;53.622;9.958;2022-10-01T02:44:26;9.70;22.20
8152;DHT22;4117;53.622;9.958;2022-10-01T02:47:01;9.80;22.50
8152;DHT22;4117;53.622;9.958;2022-10-01T02:49:29;9.80;21.80
8152;DHT22;4117;53.622;9.958;2022-10-01T02:51:59;9.80;21.70
8152;DHT22;4117;53.622;9.958;2022-10-01T02:54:30;9.80;21.70
8152;DHT22;4117;53.622;9.958;2022-10-01T02:57:00;9.80;21.00
8152;DHT22;4117;53.622;9.958;2022-10-01T02:59:44;9.80;20.40
8152;DHT22;4117;53.622;9.958;2022-10-01T03:02:12;9.80;21.80
8152;DHT22;4117;53.622;9.958;2022-10-01T03:04:39;9.80;21.00
8152;DHT22;4117;53.622;9.958;2022-10-01T03:07:06;9.80;20.60
8152;DHT22;4117;53.622;9.958;2022-10-01T03:09:34;9.80;21.20
8152;DHT22;4117;53.622;9.958;2022-10-01T03:12:01;9.80;22.30
8152;DHT22;4117;53.622;9.958;2022-10-01T03:14:28;9.80;23.30
8152;DHT22;4117;53.622;9.958;2022-10-01T03:16:56;9.80;21.10
8152;DHT22;4117;53.622;9.958;2022-10-01T03:19:24;9.80;22.20
8152;DHT22;4117;53.622;9.958;2022-10-01T03:21:51;9.80;23.00
8152;DHT22;4117;53.622;9.958;2022-10-01T03:24:17;9.80;22.60
8152;DHT22;4117;53.622;9.958;2022-10-01T03:26:44;9.80;21.10
8152;DHT22;4117;53.622;9.958;2022-10-01T03:29:11;9.80;21.60
8152;DHT22;4117;53.622;9.958;2022-10-01T03:31:39;9.80;22.80
8152;DHT22;4117;53.622;9.958;2022-10-01T03:34:06;9.80;23.20
8152;DHT22;4117;53.622;9.958;2022-10-01T03:36:34;9.80;22.30
8152;DHT22;4117;53.622;9.958;2022-10-01T03:39:02;9.80;22.30
8152;DHT22;4117;53.622;9.958;2022-10-01T03:41:29;9.80;21.10
8152;DHT22;4117;53.622;9.958;2022-10-01T03:43:55;9.80;21.20
8152;DHT22;4117;53.622;9.958;2022-10-01T03:46:22;9.80;21.90
8152;DHT22;4117;53.622;9.958;2022-10-01T03:48:50;9.90;20.50
8152;DHT22;4117;53.622;9.958;2022-10-01T03:51:17;9.90;21.70
8152;DHT22;4117;53.622;9.958;2022-10-01T03:53:46;9.80;23.30
8152;DHT22;4117;53.622;9.958;2022-10-01T03:56:14;9.80;26.30
8152;DHT22;4117;53.622;9.958;2022-10-01T03:58:41;9.80;25.90
8152;DHT22;4117;53.622;9.958;2022-10-01T04:01:08;9.90;24.70
8152;DHT22;4117;53.622;9.958;2022-10-01T04:03:34;9.90;23.00
8152;DHT22;4117;53.622;9.958;2022-10-01T04:06:01;10.00;24.40
8152;DHT22;4117;53.622;9.958;2022-10-01T04:08:28;10.00;26.30
8152;DHT22;4117;53.622;9.958;2022-10-01T04:10:56;10.00;26.30
8152;DHT22;4117;53.622;9.958;2022-10-01T04:13:25;10.00;27.70
8152;DHT22;4117;53.622;9.958;2022-10-01T04:15:52;10.00;31.10
8152;DHT22;4117;53.622;9.958;2022-10-01T04:18:18;9.90;37.30
8152;DHT22;4117;53.622;9.958;2022-10-01T04:20:46;9.90;38.70
8152;DHT22;4117;53.622;9.958;2022-10-01T04:23:13;9.90;43.50
8152;DHT22;4117;53.622;9.958;2022-10-01T04:25:40;9.90;50.90
8152;DHT22;4117;53.622;9.958;2022-10-01T04:28:11;9.90;50.90
8152;DHT22;4117;53.622;9.958;2022-10-01T04:30:40;9.90;52.60
8152;DHT22;4117;53.622;9.958;2022-10-01T04:33:08;9.90;54.60
8152;DHT22;4117;53.622;9.958;2022-10-01T04:35:36;9.90;57.30
8152;DHT22;4117;53.622;9.958;2022-10-01T04:38:06;9.90;63.20
8152;DHT22;4117;53.622;9.958;2022-10-01T04:40:35;9.80;75.90
8152;DHT22;4117;53.622;9.958;2022-10-01T04:43:03;9.80;79.00
8152;DHT22;4117;53.622;9.958;2022-10-01T04:45:32;9.80;81.00
8152;DHT22;4117;53.622;9.958;2022-10-01T04:47:59;9.80;83.40
8152;DHT22;4117;53.622;9.958;2022-10-01T04:50:26;9.80;76.70
8152;DHT22;4117;53.622;9.958;2022-10-01T04:52:53;9.80;79.50
8152;DHT22;4117;53.622;9.958;2022-10-01T04:55:21;9.80;76.50
8152;DHT22;4117;53.622;9.958;2022-10-01T04:57:48;9.80;77.90
8152;DHT22;4117;53.622;9.958;2022-10-01T05:00:18;9.70;85.00
8152;DHT22;4117;53.622;9.958;2022-10-01T05:02:48;9.70;87.60
8152;DHT22;4117;53.622;9.958;2022-10-01T05:05:16;9.70;92.30
8152;DHT22;4117;53.622;9.958;2022-10-01T05:07:43;9.70;92.30
8152;DHT22;4117;53.622;9.958;2022-10-01T05:10:12;9.60;93.90
8152;DHT22;4117;53.622;9.958;2022-10-01T05:12:39;9.60;95.70
8152;DHT22;4117;53.622;9.958;2022-10-01T05:15:07;9.60;97.20
8152;DHT22;4117;53.622;9.958;2022-10-01T05:17:34;9.60;98.70
8152;DHT22;4117;53.622;9.958;2022-10-01T05:20:03;9.60;99.90
8152;DHT22;4117;53.622;9.958;2022-10-01T05:22:31;9.60;99.90
8152;DHT22;4117;53.622;9.958;2022-10-01T05:24:58;9.60;99.90
8152;DHT22;4117;53.622;9.958;2022-10-01T05:27:24;9.60;99.90
8152;DHT22;4117;53.622;9.958;2022-10-01T05:29:51;9.50;99.90
8152;DHT22;4117;53.622;9.958;2022-10-01T05:32:18;9.50;99.90
8152;DHT22;4117;53.622;9.958;2022-10-01T05:34:45;9.60;99.90
8152;DHT22;4117;53.622;9.958;2022-10-01T05:37:13;9.60;99.90
8152;DHT22;4117;53.622;9.958;2022-10-01T05:39:40;9.60;99.90
8152;DHT22;4117;53.622;9.958;2022-10-01T05:42:07;9.60;99.90
8152;DHT22;4117;53.622;9.958;2022-10-01T05:44:34;9.50;99.90
8152;DHT22;4117;53.622;9.958;2022-10-01T05:47:02;9.50;99.90
8152;DHT22;4117;53.622;9.958;2022-10-01T05:49:29;9.50;99.90
8152;DHT22;4117;53.622;9.958;2022-10-01T05:51:56;9.50;99.90
8152;DHT22;4117;53.622;9.958;2022-10-01T05:54:24;9.50;99.90
8152;DHT22;4117;53.622;9.958;2022-10-01T05:56:51;9.50;99.90
8152;DHT22;4117;53.622;9.958;2022-10-01T05:59:18;9.50;99.90
8152;DHT22;4117;53.622;9.958;2022-10-01T06:01:44;9.50;99.90
8152;DHT22;4117;53.622;9.958;2022-10-01T06:04:11;9.50;99.90
8152;DHT22;4117;53.622;9.958;2022-10-01T06:06:38;9.50;99.90
8152;DHT22;4117;53.622;9.958;2022-10-01T06:09:05;9.50;99.90
8152;DHT22;4117;53.622;9.958;2022-10-01T06:11:36;9.50;99.90
8152;DHT22;4117;53.622;9.958;2022-10-01T06:14:03;9.50;99.90
8152;DHT22;4117;53.622;9.958;2022-10-01T06:16:30;9.50;99.90
8152;DHT22;4117;53.622;9.958;2022-10-01T06:18:57;9.50;99.90
8152;DHT22;4117;53.622;9.958;2022-10-01T06:21:24;9.50;99.90
8152;DHT22;4117;53.622;9.958;2022-10-01T06:23:51;9.50;99.90
8152;DHT22;4117;53.622;9.958;2022-10-01T06:26:18;9.50;99.90
8152;DHT22;4117;53.622;9.958;2022-10-01T06:28:49;9.50;99.90
8152;DHT22;4117;53.622;9.958;2022-10-01T06:31:16;9.50;99.90
8152;DHT22;4117;53.622;9.958;2022-10-01T06:33:43;9.50;99.90
8152;DHT22;4117;53.622;9.958;2022-10-01T06:36:09;9.50;99.90
8152;DHT22;4117;53.622;9.958;2022-10-01T06:38:36;9.50;99.90
8152;DHT22;4117;53.622;9.958;2022-10-01T06:41:03;9.50;99.90
8152;DHT22;4117;53.622;9.958;2022-10-01T06:43:31;9.50;99.90
8152;DHT22;4117;53.622;9.958;2022-10-01T06:46:02;9.60;99.90
8152;DHT22;4117;53.622;9.958;2022-10-01T06:48:29;9.60;99.90
8152;DHT22;4117;53.622;9.958;2022-10-01T06:50:56;9.50;99.90
8152;DHT22;4117;53.622;9.958;2022-10-01T06:53:25;9.60;99.90
8152;DHT22;4117;53.622;9.958;2022-10-01T06:55:53;9.60;99.90
8152;DHT22;4117;53.622;9.958;2022-10-01T06:58:21;9.60;99.90
8152;DHT22;4117;53.622;9.958;2022-10-01T07:00:49;9.60;99.90
8152;DHT22;4117;53.622;9.958;2022-10-01T07:03:19;9.60;99.90
8152;DHT22;4117;53.622;9.958;2022-10-01T07:05:48;9.60;99.90
8152;DHT22;4117;53.622;9.958;2022-10-01T07:08:15;9.60;99.90
8152;DHT22;4117;53.622;9.958;2022-10-01T07:10:42;9.60;99.90
8152;DHT22;4117;53.622;9.958;2022-10-01T07:13:11;9.60;99.90
8152;DHT22;4117;53.622;9.958;2022-10-01T07:15:38;9.60;99.90
8152;DHT22;4117;53.622;9.958;2022-10-01T07:18:07;9.60;99.90
8152;DHT22;4117;53.622;9.958;2022-10-01T07:20:36;9.60;99.90
8152;DHT22;4117;53.622;9.958;2022-10-01T07:23:06;9.60;99.90
8152;DHT22;4117;53.622;9.958;2022-10-01T07:25:33;9.60;99.90
8152;DHT22;4117;53.622;9.958;2022-10-01T07:28:02;9.60;99.90
8152;DHT22;4117;53.622;9.958;2022-10-01T07:30:30;9.60;99.90
8152;DHT22;4117;53.622;9.958;2022-10-01T07:32:57;9.60;99.90
8152;DHT22;4117;53.622;9.958;2022-10-01T07:35:24;9.60;99.90
8152;DHT22;4117;53.622;9.958;2022-10-01T07:37:53;9.70;99.90
8152;DHT22;4117;53.622;9.958;2022-10-01T07:40:19;9.60;99.90
8152;DHT22;4117;53.622;9.958;2022-10-01T07:42:51;9.70;99.90
8152;DHT22;4117;53.622;9.958;2022-10-01T07:45:20;9.70;99.90
8152;DHT22;4117;53.622;9.958;2022-10-01T07:47:51;9.70;99.90
8152;DHT22;4117;53.622;9.958;2022-10-01T07:50:19;9.70;99.90
8152;DHT22;4117;53.622;9.958;2022-10-01T07:52:49;9.70;99.90
8152;DHT22;4117;53.622;9.958;2022-10-01T07:55:18;9.70;99.90
8152;DHT22;4117;53.622;9.958;2022-10-01T07:57:50;9.70;99.90
8152;DHT22;4117;53.622;9.958;2022-10-01T08:00:17;9.70;99.90
8152;DHT22;4117;53.622;9.958;2022-10-01T08:02:48;9.80;99.90
8152;DHT22;4117;53.622;9.958;2022-10-01T08:05:16;9.80;99.90
8152;DHT22;4117;53.622;9.958;2022-10-01T08:07:43;9.80;99.90
8152;DHT22;4117;53.622;9.958;2022-10-01T08:10:12;9.80;99.90
8152;DHT22;4117;53.622;9.958;2022-10-01T08:12:41;9.80;99.90
8152;DHT22;4117;53.622;9.958;2022-10-01T08:15:08;9.80;99.90
8152;DHT22;4117;53.622;9.958;2022-10-01T08:17:36;9.80;99.90
8152;DHT22;4117;53.622;9.958;2022-10-01T08:20:03;9.80;99.90
8152;DHT22;4117;53.622;9.958;2022-10-01T08:22:31;9.80;99.90
8152;DHT22;4117;53.622;9.958;2022-10-01T08:24:58;9.90;99.90
8152;DHT22;4117;53.622;9.958;2022-10-01T08:27:25;9.80;99.90
8152;DHT22;4117;53.622;9.958;2022-10-01T08:29:54;9.90;99.90
8152;DHT22;4117;53.622;9.958;2022-10-01T08:32:21;9.90;99.90
8152;DHT22;4117;53.622;9.958;2022-10-01T08:34:50;9.90;99.90
8152;DHT22;4117;53.622;9.958;2022-10-01T08:37:22;9.90;99.90
8152;DHT22;4117;53.622;9.958;2022-10-01T08:39:49;9.90;99.90
8152;DHT22;4117;53.622;9.958;2022-10-01T08:42:27;9.90;99.90
8152;DHT22;4117;53.622;9.958;2022-10-01T08:45:03;9.90;99.90
8152;DHT22;4117;53.622;9.958;2022-10-01T08:47:34;9.90;99.90
8152;DHT22;4117;53.622;9.958;2022-10-01T08:50:05;10.00;99.90
8152;DHT22;4117;53.622;9.958;2022-10-01T08:52:41;10.00;99.90
8152;DHT22;4117;53.622;9.958;2022-10-01T08:55:15;10.00;99.90
8152;DHT22;4117;53.622;9.958;2022-10-01T08:57:47;10.00;99.90
8152;DHT22;4117;53.622;9.958;2022-10-01T09:00:18;10.00;99.90
8152;DHT22;4117;53.622;9.958;2022-10-01T09:02:46;10.00;99.90
8152;DHT22;4117;53.622;9.958;2022-10-01T09:05:20;10.10;99.90
8152;DHT22;4117;53.622;9.958;2022-10-01T09:07:58;10.10;99.90
8152;DHT22;4117;53.622;9.958;2022-10-01T09:10:39;10.10;99.90
8152;DHT22;4117;53.622;9.958;2022-10-01T09:13:31;10.10;99.90
8152;DHT22;4117;53.622;9.958;2022-10-01T09:16:12;10.10;99.90
8152;DHT22;4117;53.622;9.958;2022-10-01T09:18:50;10.20;99.90
8152;DHT22;4117;53.622;9.958;2022-10-01T09:21:24;10.20;99.90
8152;DHT22;4117;53.622;9.958;2022-10-01T09:24:02;10.20;99.90
8152;DHT22;4117;53.622;9.958;2022-10-01T09:26:29;10.20;99.90
8152;DHT22;4117;53.622;9.958;2022-10-01T09:29:00;10.20;99.90
8152;DHT22;4117;53.622;9.958;2022-10-01T09:31:34;10.20;99.90
8152;DHT22;4117;53.622;9.958;2022-10-01T09:34:08;10.20;99.90
8152;DHT22;4117;53.622;9.958;2022-10-01T09:36:40;10.30;99.90
8152;DHT22;4117;53.622;9.958;2022-10-01T09:39:17;10.30;99.90
8152;DHT22;4117;53.622;9.958;2022-10-01T09:41:45;10.30;99.90
8152;DHT22;4117;53.622;9.958;2022-10-01T09:44:16;10.40;99.90
8152;DHT22;4117;53.622;9.958;2022-10-01T09:46:45;10.40;99.90
8152;DHT22;4117;53.622;9.958;2022-10-01T09:49:16;10.40;99.90
8152;DHT22;4117;53.622;9.958;2022-10-01T09:51:49;10.50;99.90
8152;DHT22;4117;53.622;9.958;2022-10-01T09:54:24;10.50;99.90
8152;DHT22;4117;53.622;9.958;2022-10-01T09:57:00;10.50;99.90
8152;DHT22;4117;53.622;9.958;2022-10-01T09:59:35;10.60;99.90
8152;DHT22;4117;53.622;9.958;2022-10-01T10:02:11;10.70;99.90
8152;DHT22;4117;53.622;9.958;2022-10-01T10:04:39;10.70;99.90
8152;DHT22;4117;53.622;9.958;2022-10-01T10:07:06;10.80;99.90
8152;DHT22;4117;53.622;9.958;2022-10-01T10:09:34;10.90;99.90
8152;DHT22;4117;53.622;9.958;2022-10-01T10:12:01;10.90;99.90
8152;DHT22;4117;53.622;9.958;2022-10-01T10:14:31;10.90;99.90
8152;DHT22;4117;53.622;9.958;2022-10-01T10:17:04;11.00;99.90
8152;DHT22;4117;53.622;9.958;2022-10-01T10:19:32;11.10;99.90
8152;DHT22;4117;53.622;9.958;2022-10-01T10:22:09;11.10;99.90
8152;DHT22;4117;53.622;9.958;2022-10-01T10:24:37;11.20;99.90
8152;DHT22;4117;53.622;9.958;2022-10-01T10:27:06;11.30;99.90
8152;DHT22;4117;53.622;9.958;2022-10-01T10:29:45;11.40;99.90
8152;DHT22;4117;53.622;9.958;2022-10-01T10:32:16;11.40;99.90
8152;DHT22;4117;53.622;9.958;2022-10-01T10:34:45;11.50;99.90
8152;DHT22;4117;53.622;9.958;2022-10-01T10:37:14;11.60;99.90
8152;DHT22;4117;53.622;9.958;2022-10-01T10:39:45;11.70;99.90
8152;DHT22;4117;53.622;9.958;2022-10-01T10:42:15;11.80;99.90
8152;DHT22;4117;53.622;9.958;2022-10-01T10:44:45;11.90;99.90
8152;DHT22;4117;53.622;9.958;2022-10-01T10:47:17;11.90;99.90
8152;DHT22;4117;53.622;9.958;2022-10-01T10:49:46;11.90;99.90
8152;DHT22;4117;53.622;9.958;2022-10-01T10:52:19;12.00;99.90
8152;DHT22;4117;53.622;9.958;2022-10-01T10:54:48;12.00;99.90
8152;DHT22;4117;53.622;9.958;2022-10-01T10:57:18;12.20;99.90
8152;DHT22;4117;53.622;9.958;2022-10-01T10:59:54;12.20;99.90
8152;DHT22;4117;53.622;9.958;2022-10-01T11:02:24;12.30;99.90
8152;DHT22;4117;53.622;9.958;2022-10-01T11:04:54;12.30;99.90
8152;DHT22;4117;53.622;9.958;2022-10-01T11:07:24;12.30;99.90
8152;DHT22;4117;53.622;9.958;2022-10-01T11:10:02;12.30;99.90
8152;DHT22;4117;53.622;9.958;2022-10-01T11:12:43;12.40;99.90
8152;DHT22;4117;53.622;9.958;2022-10-01T11:15:26;12.60;99.90
8152;DHT22;4117;53.622;9.958;2022-10-01T11:18:24;12.70;99.90
8152;DHT22;4117;53.622;9.958;2022-10-01T11:21:02;12.80;99.90
8152;DHT22;4117;53.622;9.958;2022-10-01T11:23:46;12.80;99.90
8152;DHT22;4117;53.622;9.958;2022-10-01T11:26:24;12.90;99.90
8152;DHT22;4117;53.622;9.958;2022-10-01T11:29:06;13.00;99.90
8152;DHT22;4117;53.622;9.958;2022-10-01T11:31:39;13.00;99.90
8152;DHT22;4117;53.622;9.958;2022-10-01T11:34:31;13.10;99.90
8152;DHT22;4117;53.622;9.958;2022-10-01T11:37:10;13.00;99.90
8152;DHT22;4117;53.622;9.958;2022-10-01T11:39:41;13.00;99.90
8152;DHT22;4117;53.622;9.958;2022-10-01T11:42:13;12.90;99.90
8152;DHT22;4117;53.622;9.958;2022-10-01T11:44:44;13.00;99.90
8152;DHT22;4117;53.622;9.958;2022-10-01T11:47:14;13.00;99.90
8152;DHT22;4117;53.622;9.958;2022-10-01T11:49:49;13.10;99.90
8152;DHT22;4117;53.622;9.958;2022-10-01T11:52:31;13.20;99.90
8152;DHT22;4117;53.622;9.958;2022-10-01T11:55:09;13.20;99.90
8152;DHT22;4117;53.622;9.958;2022-10-01T11:57:59;13.20;99.90
8152;DHT22;4117;53.622;9.958;2022-10-01T12:00:55;13.20;99.90
8152;DHT22;4117;53.622;9.958;2022-10-01T12:03:29;13.20;99.90
8152;DHT22;4117;53.622;9.958;2022-10-01T12:05:59;13.30;99.90
8152;DHT22;4117;53.622;9.958;2022-10-01T12:08:29;13.60;99.90
8152;DHT22;4117;53.622;9.958;2022-10-01T12:11:07;13.60;99.90
8152;DHT22;4117;53.622;9.958;2022-10-01T12:13:40;13.60;99.90
8152;DHT22;4117;53.622;9.958;2022-10-01T12:16:12;13.80;99.90
8152;DHT22;4117;53.622;9.958;2022-10-01T12:18:47;14.00;99.90
8152;DHT22;4117;53.622;9.958;2022-10-01T12:21:20;14.00;99.90
8152;DHT22;4117;53.622;9.958;2022-10-01T12:23:51;14.00;99.90
8152;DHT22;4117;53.622;9.958;2022-10-01T12:26:24;13.90;99.90
8152;DHT22;4117;53.622;9.958;2022-10-01T12:28:56;13.80;99.90
8152;DHT22;4117;53.622;9.958;2022-10-01T12:31:31;13.80;99.90
8152;DHT22;4117;53.622;9.958;2022-10-01T12:34:09;13.90;99.90
8152;DHT22;4117;53.622;9.958;2022-10-01T12:36:47;13.90;99.90
8152;DHT22;4117;53.622;9.958;2022-10-01T12:39:28;13.90;99.90
8152;DHT22;4117;53.622;9.958;2022-10-01T12:42:05;14.00;99.90
8152;DHT22;4117;53.622;9.958;2022-10-01T12:44:49;14.00;99.90
8152;DHT22;4117;53.622;9.958;2022-10-01T12:47:27;13.90;99.90
8152;DHT22;4117;53.622;9.958;2022-10-01T12:50:06;13.90;99.90
8152;DHT22;4117;53.622;9.958;2022-10-01T12:52:43;13.90;99.90
8152;DHT22;4117;53.622;9.958;2022-10-01T12:55:20;13.90;99.90
8152;DHT22;4117;53.622;9.958;2022-10-01T12:57:56;13.90;99.90
8152;DHT22;4117;53.622;9.958;2022-10-01T13:00:25;13.90;99.90
8152;DHT22;4117;53.622;9.958;2022-10-01T13:03:16;13.80;99.90
8152;DHT22;4117;53.622;9.958;2022-10-01T13:05:52;13.80;99.90
8152;DHT22;4117;53.622;9.958;2022-10-01T13:08:40;13.80;99.90
8152;DHT22;4117;53.622;9.958;2022-10-01T13:11:14;13.80;99.90
8152;DHT22;4117;53.622;9.958;2022-10-01T13:13:47;13.70;99.90
8152;DHT22;4117;53.622;9.958;2022-10-01T13:16:20;13.70;99.90
8152;DHT22;4117;53.622;9.958;2022-10-01T13:18:55;13.60;99.90
8152;DHT22;4117;53.622;9.958;2022-10-01T13:21:43;13.30;99.90
8152;DHT22;4117;53.622;9.958;2022-10-01T13:24:19;13.10;99.90
8152;DHT22;4117;53.622;9.958;2022-10-01T13:26:53;12.90;99.90
8152;DHT22;4117;53.622;9.958;2022-10-01T13:29:31;12.80;99.90
8152;DHT22;4117;53.622;9.958;2022-10-01T13:32:02;12.80;99.90
8152;DHT22;4117;53.622;9.958;2022-10-01T13:34:38;12.70;99.90
8152;DHT22;4117;53.622;9.958;2022-10-01T13:37:13;12.60;99.90
8152;DHT22;4117;53.622;9.958;2022-10-01T13:39:42;12.60;99.90
8152;DHT22;4117;53.622;9.958;2022-10-01T13:42:21;12.60;99.90
8152;DHT22;4117;53.622;9.958;2022-10-01T13:44:54;12.60;99.90
8152;DHT22;4117;53.622;9.958;2022-10-01T13:47:21;12.60;99.90
8152;DHT22;4117;53.622;9.958;2022-10-01T13:49:57;12.60;99.90
8152;DHT22;4117;53.622;9.958;2022-10-01T13:52:25;12.60;99.90
8152;DHT22;4117;53.622;9.958;2022-10-01T13:54:54;12.60;99.90
8152;DHT22;4117;53.622;9.958;2022-10-01T13:57:28;12.50;99.90
8152;DHT22;4117;53.622;9.958;2022-10-01T14:00:00;12.60;99.90
8152;DHT22;4117;53.622;9.958;2022-10-01T14:02:31;12.60;99.90
8152;DHT22;4117;53.622;9.958;2022-10-01T14:05:19;12.70;99.90
8152;DHT22;4117;53.622;9.958;2022-10-01T14:07:51;12.70;99.90
8152;DHT22;4117;53.622;9.958;2022-10-01T14:10:29;12.60;99.90
8152;DHT22;4117;53.622;9.958;2022-10-01T14:12:57;12.50;99.90
8152;DHT22;4117;53.622;9.958;2022-10-01T14:15:42;12.60;99.90
8152;DHT22;4117;53.622;9.958;2022-10-01T14:18:29;12.70;99.90
8152;DHT22;4117;53.622;9.958;2022-10-01T14:21:04;12.80;99.90
8152;DHT22;4117;53.622;9.958;2022-10-01T14:23:37;12.90;99.90
8152;DHT22;4117;53.622;9.958;2022-10-01T14:26:15;12.90;99.90
8152;DHT22;4117;53.622;9.958;2022-10-01T14:28:52;12.80;99.90
8152;DHT22;4117;53.622;9.958;2022-10-01T14:31:34;12.90;99.90
8152;DHT22;4117;53.622;9.958;2022-10-01T14:34:27;12.90;99.90
8152;DHT22;4117;53.622;9.958;2022-10-01T14:36:57;13.00;99.90
8152;DHT22;4117;53.622;9.958;2022-10-01T14:39:25;13.00;99.90
8152;DHT22;4117;53.622;9.958;2022-10-01T14:41:55;13.10;99.90
8152;DHT22;4117;53.622;9.958;2022-10-01T14:44:24;13.20;99.90
8152;DHT22;4117;53.622;9.958;2022-10-01T14:46:54;13.20;99.90
8152;DHT22;4117;53.622;9.958;2022-10-01T14:49:24;13.20;99.90
8152;DHT22;4117;53.622;9.958;2022-10-01T14:51:55;13.20;99.90
8152;DHT22;4117;53.622;9.958;2022-10-01T14:54:24;13.30;99.90
8152;DHT22;4117;53.622;9.958;2022-10-01T14:56:54;13.30;99.90
8152;DHT22;4117;53.622;9.958;2022-10-01T14:59:29;13.30;99.90
8152;DHT22;4117;53.622;9.958;2022-10-01T15:01:59;13.20;99.90
8152;DHT22;4117;53.622;9.958;2022-10-01T15:04:26;13.20;99.90
8152;DHT22;4117;53.622;9.958;2022-10-01T15:06:53;13.20;99.90
8152;DHT22;4117;53.622;9.958;2022-10-01T15:09:19;13.30;99.90
8152;DHT22;4117;53.622;9.958;2022-10-01T15:11:48;13.40;99.90
8152;DHT22;4117;53.622;9.958;2022-10-01T15:14:20;13.30;99.90
8152;DHT22;4117;53.622;9.958;2022-10-01T15:16:48;13.30;99.90
8152;DHT22;4117;53.622;9.958;2022-10-01T15:19:18;13.20;99.90
8152;DHT22;4117;53.622;9.958;2022-10-01T15:21:48;13.20;99.90
8152;DHT22;4117;53.622;9.958;2022-10-01T15:24:21;13.20;99.90
8152;DHT22;4117;53.622;9.958;2022-10-01T15:26:48;13.30;99.90
8152;DHT22;4117;53.622;9.958;2022-10-01T15:29:18;13.20;99.90
8152;DHT22;4117;53.622;9.958;2022-10-01T15:31:46;13.30;99.90
8152;DHT22;4117;53.622;9.958;2022-10-01T15:34:15;13.30;99.90
8152;DHT22;4117;53.622;9.958;2022-10-01T15:36:43;13.20;99.90
8152;DHT22;4117;53.622;9.958;2022-10-01T15:39:26;13.20;99.90
8152;DHT22;4117;53.622;9.958;2022-10-01T15:41:54;13.20;99.90
8152;DHT22;4117;53.622;9.958;2022-10-01T15:44:41;13.30;99.90
8152;DHT22;4117;53.622;9.958;2022-10-01T15:47:24;13.30;99.90
8152;DHT22;4117;53.622;9.958;2022-10-01T15:50:04;13.20;99.90
8152;DHT22;4117;53.622;9.958;2022-10-01T15:52:32;13.20;99.90
8152;DHT22;4117;53.622;9.958;2022-10-01T15:55:28;13.20;99.90
8152;DHT22;4117;53.622;9.958;2022-10-01T15:58:00;13.20;99.90
8152;DHT22;4117;53.622;9.958;2022-10-01T16:00:30;13.10;99.90
8152;DHT22;4117;53.622;9.958;2022-10-01T16:02:59;13.10;99.90
8152;DHT22;4117;53.622;9.958;2022-10-01T16:05:31;13.10;99.90
8152;DHT22;4117;53.622;9.958;2022-10-01T16:08:01;13.20;99.90
8152;DHT22;4117;53.622;9.958;2022-10-01T16:10:33;13.20;99.90
8152;DHT22;4117;53.622;9.958;2022-10-01T16:13:33;13.20;99.90
8152;DHT22;4117;53.622;9.958;2022-10-01T16:16:19;13.20;99.90
8152;DHT22;4117;53.622;9.958;2022-10-01T16:18:47;13.20;99.90
8152;DHT22;4117;53.622;9.958;2022-10-01T16:21:19;13.20;99.90
8152;DHT22;4117;53.622;9.958;2022-10-01T16:23:47;13.10;99.90
8152;DHT22;4117;53.622;9.958;2022-10-01T16:26:37;13.10;99.90
8152;DHT22;4117;53.622;9.958;2022-10-01T16:29:16;13.10;99.90
8152;DHT22;4117;53.622;9.958;2022-10-01T16:31:46;13.10;99.90
8152;DHT22;4117;53.622;9.958;2022-10-01T16:34:15;13.10;99.90
8152;DHT22;4117;53.622;9.958;2022-10-01T16:36:42;13.00;99.90